createdAt,value
2019-03-10T00:00:44.467Z,2.10
2019-03-10T00:03:11.317Z,2.20
2019-03-10T00:05:38.329Z,2.57
2019-03-10T00:08:07.672Z,2.10
2019-03-10T00:10:33.895Z,3.10
2019-03-10T00:13:00.741Z,1.50
2019-03-10T00:15:27.709Z,2.20
2019-03-10T00:17:54.611Z,1.70
2019-03-10T00:20:21.414Z,2.10
2019-03-10T00:22:48.199Z,2.30
2019-03-10T00:25:14.963Z,1.93
2019-03-10T00:27:41.876Z,2.00
2019-03-10T00:30:08.738Z,1.80
2019-03-10T00:32:35.559Z,1.50
2019-03-10T00:35:02.806Z,1.87
2019-03-10T00:37:29.729Z,2.00
2019-03-10T00:40:17.384Z,1.70
2019-03-10T00:43:02.966Z,1.70
2019-03-10T00:45:59.789Z,1.60
2019-03-10T00:48:41.929Z,2.07
2019-03-10T00:51:18.704Z,3.20
2019-03-10T00:53:45.688Z,1.80
2019-03-10T00:56:12.631Z,2.30
2019-03-10T00:58:39.603Z,2.27
2019-03-10T01:01:06.465Z,1.10
2019-03-10T01:03:33.347Z,1.47
2019-03-10T01:06:00.189Z,1.60
2019-03-10T01:08:27.079Z,1.60
2019-03-10T01:10:54.283Z,1.50
2019-03-10T01:13:21.747Z,2.20
2019-03-10T01:15:49.082Z,1.53
2019-03-10T01:18:18.722Z,1.60
2019-03-10T01:20:48.377Z,1.50
2019-03-10T01:23:15.401Z,1.30
2019-03-10T01:25:42.416Z,1.73
2019-03-10T01:28:09.236Z,2.63
2019-03-10T01:30:40.363Z,1.73
2019-03-10T01:33:26.904Z,1.70
2019-03-10T01:35:53.679Z,1.90
2019-03-10T01:38:20.467Z,2.10
2019-03-10T01:40:47.340Z,1.27
2019-03-10T01:43:14.134Z,2.07
2019-03-10T01:45:41.053Z,1.30
2019-03-10T01:48:07.940Z,1.43
2019-03-10T01:50:34.816Z,1.47
2019-03-10T01:53:01.622Z,1.77
2019-03-10T01:55:28.427Z,1.83
2019-03-10T01:57:55.219Z,1.57
2019-03-10T02:00:22.168Z,2.30
2019-03-10T02:02:48.965Z,1.33
2019-03-10T02:05:15.830Z,2.60
2019-03-10T02:07:42.658Z,2.20
2019-03-10T02:10:09.777Z,1.60
2019-03-10T02:12:36.636Z,1.43
2019-03-10T02:15:04.093Z,1.70
2019-03-10T02:17:30.891Z,1.60
2019-03-10T02:19:57.728Z,1.60
2019-03-10T02:22:24.879Z,1.50
2019-03-10T02:24:51.658Z,1.30
2019-03-10T02:27:18.551Z,2.03
2019-03-10T02:29:45.566Z,1.90
2019-03-10T02:32:12.422Z,1.37
2019-03-10T02:34:39.219Z,1.53
2019-03-10T02:37:06.133Z,1.30
2019-03-10T02:39:32.988Z,1.47
2019-03-10T02:41:59.879Z,2.00
2019-03-10T02:44:26.659Z,1.90
2019-03-10T02:46:53.751Z,1.73
2019-03-10T02:49:20.636Z,1.40
2019-03-10T02:51:47.423Z,1.30
2019-03-10T02:54:14.528Z,1.17
2019-03-10T02:56:41.288Z,1.53
2019-03-10T02:59:08.128Z,1.33
2019-03-10T03:01:35.101Z,1.23
2019-03-10T03:04:01.879Z,1.50
2019-03-10T03:06:29.021Z,2.27
2019-03-10T03:08:55.838Z,2.00
2019-03-10T03:11:23.048Z,1.30
2019-03-10T03:13:49.888Z,1.33
2019-03-10T03:16:16.805Z,1.40
2019-03-10T03:18:43.603Z,1.40
2019-03-10T03:21:10.456Z,1.30
2019-03-10T03:23:37.273Z,2.27
2019-03-10T03:26:04.132Z,1.93
2019-03-10T03:28:30.998Z,2.33
2019-03-10T03:30:57.816Z,2.10
2019-03-10T03:33:25.141Z,1.90
2019-03-10T03:35:52.890Z,1.60
2019-03-10T03:38:39.653Z,1.70
2019-03-10T03:41:08.344Z,2.50
2019-03-10T03:43:35.127Z,2.17
2019-03-10T03:46:01.930Z,1.67
2019-03-10T03:48:28.757Z,2.73
2019-03-10T03:50:55.567Z,1.83
2019-03-10T03:53:22.365Z,2.30
2019-03-10T03:55:49.227Z,2.50
2019-03-10T03:58:16.025Z,2.40
2019-03-10T04:00:45.082Z,3.30
2019-03-10T04:03:12.022Z,3.07
2019-03-10T04:05:38.911Z,2.23
2019-03-10T04:08:05.767Z,3.10
2019-03-10T04:10:32.738Z,2.63
2019-03-10T04:12:59.745Z,2.63
2019-03-10T04:15:26.690Z,3.23
2019-03-10T04:17:53.497Z,3.00
2019-03-10T04:20:20.389Z,3.37
2019-03-10T04:22:47.205Z,3.13
2019-03-10T04:25:14.049Z,3.20
2019-03-10T04:27:40.865Z,3.77
2019-03-10T04:30:08.114Z,3.90
2019-03-10T04:32:34.883Z,2.80
2019-03-10T04:35:01.798Z,3.13
2019-03-10T04:37:28.701Z,3.80
2019-03-10T04:39:55.498Z,3.57
2019-03-10T04:42:22.532Z,3.83
2019-03-10T04:44:49.912Z,3.30
2019-03-10T04:47:16.702Z,3.90
2019-03-10T04:49:43.507Z,3.60
2019-03-10T04:52:10.572Z,3.40
2019-03-10T04:54:59.544Z,3.97
2019-03-10T04:57:26.687Z,3.67
2019-03-10T04:59:53.610Z,3.87
2019-03-10T05:02:20.463Z,3.60
2019-03-10T05:04:47.309Z,3.20
2019-03-10T05:07:14.135Z,3.97
2019-03-10T05:09:41.008Z,3.90
2019-03-10T05:12:07.803Z,3.93
2019-03-10T05:14:34.614Z,4.83
2019-03-10T05:17:01.388Z,4.17
2019-03-10T05:19:28.199Z,4.40
2019-03-10T05:21:54.992Z,4.53
2019-03-10T05:24:21.768Z,4.60
2019-03-10T05:26:48.921Z,4.27
2019-03-10T05:29:16.023Z,4.57
2019-03-10T05:31:42.841Z,3.90
2019-03-10T05:34:09.677Z,4.47
2019-03-10T05:36:36.605Z,4.53
2019-03-10T05:39:04.577Z,4.90
2019-03-10T05:41:31.478Z,4.37
2019-03-10T05:43:58.932Z,3.90
2019-03-10T05:46:25.884Z,4.57
2019-03-10T05:48:52.671Z,4.67
2019-03-10T05:51:19.457Z,4.67
2019-03-10T05:53:46.225Z,5.03
2019-03-10T05:56:13.081Z,4.30
2019-03-10T05:58:39.989Z,4.57
2019-03-10T06:01:06.768Z,4.50
2019-03-10T06:03:33.613Z,4.93
2019-03-10T06:06:00.392Z,4.90
2019-03-10T06:08:27.184Z,4.60
2019-03-10T06:10:54.070Z,4.73
2019-03-10T06:13:20.891Z,4.50
2019-03-10T06:15:47.671Z,4.50
2019-03-10T06:18:14.496Z,4.50
2019-03-10T06:20:41.310Z,4.30
2019-03-10T06:23:08.102Z,5.00
2019-03-10T06:25:35.201Z,4.90
2019-03-10T06:28:02.203Z,4.70
2019-03-10T06:30:28.980Z,4.80
2019-03-10T06:32:55.794Z,5.00
2019-03-10T06:35:22.586Z,5.50
2019-03-10T06:37:49.400Z,4.43
2019-03-10T06:40:16.375Z,5.00
2019-03-10T06:42:43.281Z,4.90
2019-03-10T06:45:10.194Z,4.07
2019-03-10T06:47:36.992Z,4.90
2019-03-10T06:50:04.163Z,4.93
2019-03-10T06:52:30.928Z,4.13
2019-03-10T06:54:57.773Z,5.17
2019-03-10T06:57:24.589Z,4.20
2019-03-10T06:59:51.491Z,4.33
2019-03-10T07:02:18.283Z,4.30
2019-03-10T07:04:45.059Z,4.30
2019-03-10T07:07:11.908Z,4.17
2019-03-10T07:09:39.020Z,4.20
2019-03-10T07:12:05.813Z,5.00
2019-03-10T07:14:32.584Z,4.10
2019-03-10T07:16:59.404Z,4.87
2019-03-10T07:19:26.231Z,5.30
2019-03-10T07:21:53.037Z,5.07
2019-03-10T07:24:23.911Z,4.90
2019-03-10T07:26:50.717Z,5.23
2019-03-10T07:29:26.463Z,4.13
2019-03-10T07:32:11.962Z,4.47
2019-03-10T07:35:10.954Z,4.83
2019-03-10T07:37:52.550Z,5.40
2019-03-10T07:40:41.782Z,5.10
2019-03-10T07:43:17.837Z,5.03
2019-03-10T07:45:56.607Z,5.07
2019-03-10T07:48:32.855Z,6.23
2019-03-10T07:51:05.533Z,4.47
2019-03-10T07:53:37.472Z,5.50
2019-03-10T07:56:18.726Z,5.30
2019-03-10T07:58:58.934Z,5.40
2019-03-10T08:01:36.520Z,6.37
2019-03-10T08:04:21.787Z,6.10
2019-03-10T08:07:12.864Z,7.00
2019-03-10T08:10:17.699Z,5.30
2019-03-10T08:12:51.370Z,6.80
2019-03-10T08:15:31.883Z,6.20
2019-03-10T08:18:07.860Z,5.20
2019-03-10T08:20:47.395Z,5.80
2019-03-10T08:23:32.481Z,6.30
2019-03-10T08:26:14.285Z,7.73
2019-03-10T08:29:03.820Z,6.40
2019-03-10T08:31:49.312Z,5.07
2019-03-10T08:34:25.176Z,5.67
2019-03-10T08:37:10.156Z,4.30
2019-03-10T08:39:55.354Z,5.10
2019-03-10T08:42:31.915Z,4.67
2019-03-10T08:45:11.454Z,4.87
2019-03-10T08:47:58.166Z,4.33
2019-03-10T08:50:30.533Z,5.23
2019-03-10T08:53:05.557Z,4.70
2019-03-10T08:55:55.040Z,4.90
2019-03-10T08:58:27.510Z,4.50
2019-03-10T09:01:23.488Z,4.43
2019-03-10T09:04:19.033Z,4.03
2019-03-10T09:06:58.799Z,3.47
2019-03-10T09:09:45.889Z,3.37
2019-03-10T09:12:34.967Z,3.53
2019-03-10T09:15:18.117Z,3.23
2019-03-10T09:17:54.040Z,3.80
2019-03-10T09:20:26.945Z,3.47
2019-03-10T09:23:00.877Z,3.63
2019-03-10T09:25:44.100Z,3.43
2019-03-10T09:28:18.827Z,3.43
2019-03-10T09:30:51.385Z,3.73
2019-03-10T09:33:36.531Z,3.60
2019-03-10T09:36:09.150Z,3.13
2019-03-10T09:39:08.015Z,3.33
2019-03-10T09:41:54.501Z,3.10
2019-03-10T09:44:44.108Z,2.83
2019-03-10T09:47:19.316Z,3.17
2019-03-10T09:50:14.779Z,3.03
2019-03-10T09:53:00.255Z,2.70
2019-03-10T09:55:41.645Z,3.93
2019-03-10T09:58:37.420Z,3.17
2019-03-10T10:01:16.417Z,3.23
2019-03-10T10:03:53.683Z,3.33
2019-03-10T10:06:39.158Z,3.50
2019-03-10T10:09:16.578Z,3.93
2019-03-10T10:11:49.960Z,4.23
2019-03-10T10:14:25.654Z,3.43
2019-03-10T10:17:12.193Z,3.50
2019-03-10T10:19:53.681Z,4.10
2019-03-10T10:22:38.981Z,3.63
2019-03-10T10:25:16.968Z,4.43
2019-03-10T10:27:57.125Z,4.10
2019-03-10T10:30:34.918Z,4.43
2019-03-10T10:33:26.417Z,3.97
2019-03-10T10:36:06.625Z,5.33
2019-03-10T10:38:49.676Z,3.53
2019-03-10T10:41:28.555Z,4.57
2019-03-10T10:44:04.006Z,4.50
2019-03-10T10:46:40.962Z,4.13
2019-03-10T10:49:12.836Z,5.60
2019-03-10T10:51:47.145Z,5.80
2019-03-10T10:54:28.933Z,5.80
2019-03-10T10:57:19.522Z,5.83
2019-03-10T11:00:06.038Z,6.30
2019-03-10T11:02:39.595Z,6.30
2019-03-10T11:05:25.224Z,6.20
2019-03-10T11:07:57.583Z,5.83
2019-03-10T11:10:59.728Z,6.00
2019-03-10T11:13:45.787Z,6.60
2019-03-10T11:16:21.669Z,6.10
2019-03-10T11:18:54.894Z,5.33
2019-03-10T11:21:38.176Z,5.60
2019-03-10T11:24:12.074Z,6.00
2019-03-10T11:27:08.553Z,6.07
2019-03-10T11:29:42.973Z,5.27
2019-03-10T11:32:17.210Z,5.20
2019-03-10T11:35:06.085Z,4.70
2019-03-10T11:37:49.611Z,5.50
2019-03-10T11:40:41.466Z,8.20
2019-03-10T11:43:17.604Z,7.10
2019-03-10T11:46:03.070Z,4.47
2019-03-10T11:48:36.578Z,4.77
2019-03-10T11:51:26.032Z,9.80
2019-03-10T11:54:12.544Z,6.90
2019-03-10T11:57:01.324Z,5.30
2019-03-10T11:59:32.746Z,4.77
2019-03-10T12:02:23.446Z,5.67
2019-03-10T12:05:08.601Z,6.37
2019-03-10T12:07:51.877Z,5.07
2019-03-10T12:10:18.756Z,4.90
2019-03-10T12:12:45.528Z,5.93
2019-03-10T12:15:12.859Z,6.70
2019-03-10T12:17:39.693Z,7.40
2019-03-10T12:20:07.016Z,5.27
2019-03-10T12:22:33.780Z,5.07
2019-03-10T12:25:00.661Z,6.33
2019-03-10T12:27:27.475Z,9.93
2019-03-10T12:29:54.356Z,9.63
2019-03-10T12:32:21.285Z,7.77
2019-03-10T12:34:48.329Z,6.60
2019-03-10T12:37:15.210Z,9.03
2019-03-10T12:39:42.100Z,5.13
2019-03-10T12:42:08.881Z,3.20
2019-03-10T12:44:35.757Z,4.87
2019-03-10T12:47:03.732Z,5.50
2019-03-10T12:49:30.536Z,6.50
2019-03-10T12:51:57.358Z,5.83
2019-03-10T12:54:24.256Z,5.17
2019-03-10T12:56:51.050Z,4.07
2019-03-10T12:59:17.899Z,6.10
2019-03-10T13:01:44.772Z,3.70
2019-03-10T13:04:11.593Z,3.27
2019-03-10T13:06:38.419Z,2.43
2019-03-10T13:09:06.750Z,3.00
2019-03-10T13:11:33.669Z,4.50
2019-03-10T13:14:00.481Z,5.40
2019-03-10T13:16:27.304Z,4.43
2019-03-10T13:18:54.068Z,6.60
2019-03-10T13:21:20.905Z,9.87
2019-03-10T13:23:47.881Z,6.03
2019-03-10T13:26:14.760Z,6.77
2019-03-10T13:28:41.547Z,5.23
2019-03-10T13:31:08.392Z,8.03
2019-03-10T13:33:35.204Z,7.50
2019-03-10T13:36:02.205Z,9.40
2019-03-10T13:38:29.325Z,7.20
2019-03-10T13:40:56.141Z,6.43
2019-03-10T13:43:22.916Z,5.00
2019-03-10T13:45:50.105Z,6.60
2019-03-10T13:48:16.911Z,5.60
2019-03-10T13:50:43.843Z,5.60
2019-03-10T13:53:10.692Z,7.53
2019-03-10T13:55:37.505Z,7.00
2019-03-10T13:58:04.275Z,6.47
2019-03-10T14:00:31.080Z,6.20
2019-03-10T14:02:58.149Z,6.50
2019-03-10T14:05:25.436Z,5.67
2019-03-10T14:07:53.146Z,7.57
2019-03-10T14:10:20.476Z,6.67
2019-03-10T14:12:47.757Z,10.50
2019-03-10T14:15:15.509Z,6.90
2019-03-10T14:17:42.459Z,10.43
2019-03-10T14:20:09.497Z,7.87
2019-03-10T14:22:36.291Z,6.67
2019-03-10T14:25:03.364Z,6.17
2019-03-10T14:27:30.171Z,6.80
2019-03-10T14:29:57.048Z,7.70
2019-03-10T14:32:24.013Z,5.00
2019-03-10T14:34:50.886Z,8.50
2019-03-10T14:37:17.751Z,7.87
2019-03-10T14:39:44.573Z,6.27
2019-03-10T14:42:11.387Z,6.00
2019-03-10T14:44:38.512Z,13.87
2019-03-10T14:47:05.326Z,6.13
2019-03-10T14:49:32.108Z,6.47
2019-03-10T14:51:58.968Z,5.27
2019-03-10T14:54:25.882Z,4.77
2019-03-10T14:56:52.755Z,5.93
2019-03-10T14:59:19.579Z,7.57
2019-03-10T15:01:46.430Z,5.30
2019-03-10T15:04:13.244Z,6.07
2019-03-10T15:06:40.085Z,6.80
2019-03-10T15:09:07.517Z,7.37
2019-03-10T15:11:34.549Z,6.70
2019-03-10T15:14:01.483Z,5.57
2019-03-10T15:16:28.500Z,5.67
2019-03-10T15:18:55.305Z,4.53
2019-03-10T15:21:22.169Z,6.30
2019-03-10T15:23:48.965Z,4.83
2019-03-10T15:26:15.739Z,5.37
2019-03-10T15:28:42.619Z,4.27
2019-03-10T15:31:09.398Z,3.20
2019-03-10T15:33:36.183Z,4.80
2019-03-10T15:36:03.441Z,5.70
2019-03-10T15:38:30.253Z,4.97
2019-03-10T15:40:57.053Z,5.77
2019-03-10T15:43:24.024Z,6.63
2019-03-10T15:45:51.166Z,6.80
2019-03-10T15:48:17.985Z,6.60
2019-03-10T15:50:44.841Z,3.97
2019-03-10T15:53:11.729Z,2.77
2019-03-10T15:55:38.655Z,3.10
2019-03-10T15:58:05.559Z,3.53
2019-03-10T16:00:32.643Z,5.57
2019-03-10T16:02:59.473Z,4.63
2019-03-10T16:05:26.489Z,4.90
2019-03-10T16:07:53.291Z,3.83
2019-03-10T16:10:20.072Z,4.30
2019-03-10T16:12:49.315Z,3.90
2019-03-10T16:15:15.786Z,4.00
2019-03-10T16:17:42.662Z,3.27
2019-03-10T16:20:09.736Z,4.60
2019-03-10T16:22:36.554Z,5.57
2019-03-10T16:25:03.920Z,6.57
2019-03-10T16:27:30.748Z,6.60
2019-03-10T16:29:57.828Z,9.80
2019-03-10T16:32:24.616Z,9.03
2019-03-10T16:34:51.444Z,9.90
2019-03-10T16:37:18.217Z,8.30
2019-03-10T16:39:44.995Z,9.87
2019-03-10T16:42:13.664Z,8.53
2019-03-10T16:44:41.639Z,8.77
2019-03-10T16:47:08.596Z,9.53
2019-03-10T16:49:35.461Z,8.87
2019-03-10T16:52:02.525Z,8.23
2019-03-10T16:54:29.616Z,6.70
2019-03-10T16:56:56.511Z,7.17
2019-03-10T16:59:23.331Z,7.07
2019-03-10T17:01:50.243Z,6.47
2019-03-10T17:04:17.072Z,5.47
2019-03-10T17:06:44.163Z,5.23
2019-03-10T17:09:15.293Z,4.97
2019-03-10T17:11:42.233Z,3.63
2019-03-10T17:14:09.227Z,7.10
2019-03-10T17:16:36.052Z,4.50
2019-03-10T17:19:02.943Z,5.23
2019-03-10T17:21:29.855Z,4.97
2019-03-10T17:23:56.680Z,4.40
2019-03-10T17:26:23.572Z,5.63
2019-03-10T17:28:50.401Z,4.20
2019-03-10T17:31:17.301Z,3.10
2019-03-10T17:33:44.115Z,3.70
2019-03-10T17:36:11.030Z,3.70
2019-03-10T17:38:37.876Z,5.07
2019-03-10T17:41:04.699Z,5.77
2019-03-10T17:43:31.565Z,8.67
2019-03-10T17:45:58.369Z,4.60
2019-03-10T17:48:25.155Z,6.00
2019-03-10T17:50:51.965Z,6.30
2019-03-10T17:53:18.807Z,6.63
2019-03-10T17:55:45.592Z,4.77
2019-03-10T17:58:12.421Z,3.90
2019-03-10T18:00:39.486Z,4.87
2019-03-10T18:03:06.333Z,5.70
2019-03-10T18:05:33.156Z,6.57
2019-03-10T18:08:00.039Z,4.00
2019-03-10T18:10:26.845Z,4.40
2019-03-10T18:12:53.769Z,4.17
2019-03-10T18:15:20.619Z,8.50
2019-03-10T18:17:47.507Z,6.73
2019-03-10T18:20:14.387Z,8.70
2019-03-10T18:22:41.725Z,6.67
2019-03-10T18:25:08.775Z,5.20
2019-03-10T18:27:35.636Z,5.63
2019-03-10T18:30:02.669Z,5.50
2019-03-10T18:32:29.506Z,5.93
2019-03-10T18:34:56.401Z,7.10
2019-03-10T18:37:23.219Z,7.30
2019-03-10T18:39:50.070Z,6.30
2019-03-10T18:42:16.927Z,8.03
2019-03-10T18:44:43.705Z,8.10
2019-03-10T18:47:10.636Z,7.63
2019-03-10T18:49:37.451Z,5.33
2019-03-10T18:52:04.236Z,5.23
2019-03-10T18:54:31.154Z,6.60
2019-03-10T18:56:57.951Z,6.30
2019-03-10T18:59:24.764Z,5.10
2019-03-10T19:01:51.664Z,6.53
2019-03-10T19:04:18.975Z,7.80
2019-03-10T19:06:45.884Z,9.20
2019-03-10T19:09:12.698Z,10.13
2019-03-10T19:11:39.572Z,13.00
2019-03-10T19:14:06.396Z,9.63
2019-03-10T19:16:33.281Z,9.10
2019-03-10T19:19:00.201Z,8.50
2019-03-10T19:21:27.093Z,7.83
2019-03-10T19:23:53.923Z,10.53
2019-03-10T19:26:20.784Z,12.87
2019-03-10T19:28:47.681Z,11.67
2019-03-10T19:31:14.535Z,16.00
2019-03-10T19:33:41.313Z,9.40
2019-03-10T19:36:08.121Z,10.80
2019-03-10T19:38:34.964Z,15.60
2019-03-10T19:41:01.785Z,28.13
2019-03-10T19:43:28.589Z,15.90
2019-03-10T19:45:55.453Z,9.70
2019-03-10T19:48:22.223Z,10.70
2019-03-10T19:50:49.073Z,10.67
2019-03-10T19:53:16.080Z,10.07
2019-03-10T19:55:42.908Z,8.63
2019-03-10T19:58:09.756Z,9.17
2019-03-10T20:00:36.593Z,9.33
2019-03-10T20:03:03.392Z,8.77
2019-03-10T20:05:30.438Z,8.60
2019-03-10T20:07:57.280Z,6.87
2019-03-10T20:10:24.113Z,8.60
2019-03-10T20:12:51.023Z,8.33
2019-03-10T20:15:17.900Z,11.37
2019-03-10T20:17:46.356Z,20.27
2019-03-10T20:20:13.840Z,14.80
2019-03-10T20:22:40.974Z,11.93
2019-03-10T20:25:08.215Z,7.53
2019-03-10T20:27:35.209Z,14.67
2019-03-10T20:30:02.626Z,7.83
2019-03-10T20:32:29.578Z,7.77
2019-03-10T20:34:56.452Z,9.20
2019-03-10T20:37:23.306Z,9.43
2019-03-10T20:39:50.213Z,9.30
2019-03-10T20:42:17.326Z,9.43
2019-03-10T20:44:44.135Z,12.73
2019-03-10T20:47:10.948Z,19.53
2019-03-10T20:49:37.735Z,27.57
2019-03-10T20:52:04.584Z,17.27
2019-03-10T20:54:31.397Z,22.37
2019-03-10T20:56:58.234Z,18.93
2019-03-10T20:59:25.124Z,43.37
2019-03-10T21:01:51.937Z,24.70
2019-03-10T21:04:18.719Z,21.93
2019-03-10T21:06:45.544Z,14.60
2019-03-10T21:09:12.402Z,33.07
2019-03-10T21:11:39.290Z,40.63
2019-03-10T21:14:06.153Z,33.33
2019-03-10T21:16:32.959Z,23.07
2019-03-10T21:18:59.844Z,11.17
2019-03-10T21:21:26.647Z,17.87
2019-03-10T21:23:55.390Z,18.83
2019-03-10T21:26:22.685Z,14.20
2019-03-10T21:28:49.463Z,14.33
2019-03-10T21:31:16.241Z,12.80
2019-03-10T21:33:43.036Z,9.77
2019-03-10T21:36:09.816Z,8.90
2019-03-10T21:38:36.593Z,14.80
2019-03-10T21:41:13.404Z,11.33
2019-03-10T21:43:32.148Z,12.50
2019-03-10T21:45:58.939Z,9.67
2019-03-10T21:48:25.914Z,9.93
2019-03-10T21:50:52.844Z,11.10
2019-03-10T21:53:19.680Z,12.63
2019-03-10T21:55:46.552Z,10.57
2019-03-10T21:58:13.373Z,10.17
2019-03-10T22:00:40.139Z,10.57
2019-03-10T22:03:07.052Z,9.17
2019-03-10T22:05:33.929Z,9.70
2019-03-10T22:08:00.733Z,11.43
2019-03-10T22:10:28.150Z,8.10
2019-03-10T22:12:55.210Z,11.03
2019-03-10T22:15:22.090Z,10.10
2019-03-10T22:17:48.897Z,8.23
2019-03-10T22:20:15.820Z,11.07
2019-03-10T22:22:48.188Z,10.13
2019-03-10T22:25:13.384Z,11.87
2019-03-10T22:27:40.858Z,17.40
2019-03-10T22:30:10.244Z,13.37
2019-03-10T22:32:38.388Z,15.67
2019-03-10T22:35:06.368Z,18.73
2019-03-10T22:37:34.995Z,34.13
2019-03-10T22:40:03.431Z,24.40
2019-03-10T22:42:32.098Z,22.50
2019-03-10T22:44:59.686Z,29.70
2019-03-10T22:47:28.115Z,21.00
2019-03-10T22:49:55.441Z,19.57
2019-03-10T22:52:23.544Z,18.63
2019-03-10T22:54:51.030Z,18.17
2019-03-10T22:57:18.221Z,13.20
2019-03-10T22:59:45.842Z,16.90
2019-03-10T23:02:13.338Z,14.57
2019-03-10T23:04:40.562Z,14.53
2019-03-10T23:07:07.722Z,16.47
2019-03-10T23:09:35.511Z,15.70
2019-03-10T23:12:03.141Z,15.70
2019-03-10T23:14:31.044Z,12.70
2019-03-10T23:16:58.641Z,12.10
2019-03-10T23:19:26.687Z,11.73
2019-03-10T23:21:54.537Z,10.73
2019-03-10T23:24:21.947Z,10.40
2019-03-10T23:26:48.901Z,10.30
2019-03-10T23:29:15.749Z,11.10
2019-03-10T23:31:42.620Z,10.97
2019-03-10T23:34:09.408Z,9.83
2019-03-10T23:36:36.225Z,9.67
2019-03-10T23:39:04.122Z,10.10
2019-03-10T23:41:30.940Z,9.80
2019-03-10T23:43:57.749Z,8.53
2019-03-10T23:46:24.632Z,6.50
2019-03-10T23:48:51.493Z,7.07
2019-03-10T23:51:18.317Z,8.10
2019-03-10T23:53:45.167Z,6.90
2019-03-10T23:56:12.231Z,7.20
2019-03-10T23:58:39.023Z,7.60
